YPPD/PHE METAR and TAF weather

Enter ICAO airport designator
Station Type Date Time Source
YPPD METAR 2020/11/27 03:00 UTC NOAA

YPPD 270300Z AUTO 35009KT 9999 // NCD 34/23 Q1008 RF00.0/000.0


Station Type Date Time Source
YPPD Decoded METAR 2020/11/27 03:00 UTC NOAA

Port Hedland Pardoo, Australia (YPPD) 20-06S 119-34E 10M
Nov 26, 2020 - 10:00 PM EST / 2020.11.27 0300 UTC
Wind: from the N (350 degrees) at 10 MPH (9 KT):0
Visibility: greater than 7 mile(s):0
Temperature: 93 F (34 C)
Heat index: 101.8 F (38.8 C):1
Dew Point: 73 F (23 C)
Relative Humidity: 52%
Pressure (altimeter): 29.77 in. Hg (1008 hPa)
ob: YPPD 270300Z AUTO 35009KT 9999 // NCD 34/23 Q1008 RF00.0/000.0
cycle: 3

Station Type Date Time Source
YPPD TAF 2020/11/26 18:36 UTC NOAA

TAF YPPD 261707Z 2618/2718 26008KT 9999 SCT010
FM270000 30008KT CAVOK
FM270300 31014KT CAVOK
FM271000 32010KT CAVOK
FM271200 29008KT 9999 FEW010

Example: see airport list